Time;durP1;ratioP1;P1;durP2;ratioP2;P2;SDS_P1;SDS_P2;PMS_P1;PMS_P2;Temp;Humidity;BMP_temperature;BMP_pressure;BME280_temperature;BME280_humidity;BME280_pressure;Samples;Min_cycle;Max_cycle;Signal;HPM_P1;HPM_P2
2021/03/11 00:01:42;;;;;;;0.60;0.40;;;;;;;4.48;67.41;100605.63;5072440;28;20971;-67
2021/03/11 00:04:08;;;;;;;1.03;1.03;;;;;;;4.48;67.76;100601.09;5072405;28;20449;-67
2021/03/11 00:06:34;;;;;;;1.73;0.93;;;;;;;4.47;67.71;100593.28;5072728;28;20456;-67
2021/03/11 00:09:00;;;;;;;4.63;1.37;;;;;;;4.46;68.32;100589.00;5072506;28;20489;-67
2021/03/11 00:11:26;;;;;;;1.63;1.33;;;;;;;4.45;68.77;100596.22;5072620;28;20817;-67
2021/03/11 00:13:52;;;;;;;3.20;1.80;;;;;;;4.52;68.62;100587.97;5072307;28;20441;-67
2021/03/11 00:16:19;;;;;;;5.60;2.13;;;;;;;4.47;68.91;100571.81;5072616;28;20429;-66
2021/03/11 00:18:45;;;;;;;8.33;2.80;;;;;;;4.45;69.64;100573.97;5072525;28;20507;-68
2021/03/11 00:21:11;;;;;;;5.27;2.77;;;;;;;4.43;69.95;100568.06;5072106;28;20982;-67
2021/03/11 00:23:37;;;;;;;0.63;0.63;;;;;;;4.50;70.25;100556.03;5072156;28;20491;-68
2021/03/11 00:26:03;;;;;;;3.57;1.30;;;;;;;4.51;70.18;100564.88;5072519;28;20440;-67
2021/03/11 00:28:29;;;;;;;1.50;1.03;;;;;;;4.46;70.31;100554.13;5072185;28;20909;-67
2021/03/11 00:30:55;;;;;;;0.67;0.60;;;;;;;4.51;70.58;100546.09;5072953;28;20463;-67
2021/03/11 00:33:22;;;;;;;0.80;0.70;;;;;;;4.51;71.53;100544.22;5073874;28;20441;-67
2021/03/11 00:35:47;;;;;;;1.53;1.00;;;;;;;4.54;72.16;100540.22;5075680;28;20938;-67
2021/03/11 00:38:15;;;;;;;1.53;1.40;;;;;;;4.50;72.19;100528.41;5075946;28;20448;-66
2021/03/11 00:40:41;;;;;;;5.43;2.00;;;;;;;4.53;72.33;100511.78;5075522;28;20481;-67
2021/03/11 00:43:07;;;;;;;1.20;1.17;;;;;;;4.60;71.78;100506.97;5075890;28;20437;-67
2021/03/11 00:45:33;;;;;;;4.10;2.73;;;;;;;4.64;72.07;100499.22;5075816;28;20499;-67
2021/03/11 00:47:59;;;;;;;3.53;1.90;;;;;;;4.68;72.11;100493.06;5075592;28;20445;-66
2021/03/11 00:50:26;;;;;;;0.50;0.40;;;;;;;4.65;72.66;100472.13;5075615;28;20491;-66
2021/03/11 00:52:52;;;;;;;1.90;1.23;;;;;;;4.68;72.51;100471.59;5075412;28;20501;-66
2021/03/11 00:55:19;;;;;;;0.50;0.40;;;;;;;4.72;72.51;100467.31;5075663;28;20445;-66
2021/03/11 00:57:45;;;;;;;2.17;2.07;;;;;;;4.72;72.81;100453.09;5075308;28;20796;-67
2021/03/11 01:00:14;;;;;;;1.23;0.80;;;;;;;4.75;72.16;100439.16;5075507;28;20557;-67
2021/03/11 01:02:40;;;;;;;0.90;0.60;;;;;;;4.75;72.35;100439.16;5075650;28;20441;-67
2021/03/11 01:05:07;;;;;;;2.00;1.40;;;;;;;4.72;72.58;100440.47;5075123;28;20942;-66
2021/03/11 01:07:34;;;;;;;2.30;1.10;;;;;;;4.60;72.73;100445.28;5075293;28;20602;-67
2021/03/11 01:10:00;;;;;;;1.63;0.97;;;;;;;4.61;72.88;100440.75;5074965;28;20493;-66
2021/03/11 01:12:26;;;;;;;4.90;1.73;;;;;;;4.53;72.91;100434.00;5075076;28;20441;-67
2021/03/11 01:14:52;;;;;;;1.40;0.73;;;;;;;4.56;73.25;100425.44;5075256;28;20536;-67
2021/03/11 01:17:18;;;;;;;0.70;0.70;;;;;;;4.61;73.65;100420.09;5075290;28;20946;-67
2021/03/11 01:19:44;;;;;;;6.27;2.03;;;;;;;4.64;73.77;100422.22;5075175;28;20962;-67
2021/03/11 01:22:10;;;;;;;0.70;0.70;;;;;;;4.64;73.74;100411.50;5075233;28;20997;-67
2021/03/11 01:24:36;;;;;;;3.10;1.33;;;;;;;4.65;73.64;100404.25;5074887;28;20446;-67
2021/03/11 01:27:02;;;;;;;0.57;0.50;;;;;;;4.66;73.89;100398.63;5074777;28;20970;-67
2021/03/11 01:29:29;;;;;;;3.80;2.30;;;;;;;4.66;74.16;100392.47;5074646;28;20883;-67
2021/03/11 01:31:55;;;;;;;5.47;1.00;;;;;;;4.67;73.69;100388.72;5074991;28;20472;-67
2021/03/11 01:34:21;;;;;;;1.43;1.17;;;;;;;4.65;73.83;100380.94;5075029;28;20438;-67
2021/03/11 01:36:48;;;;;;;4.40;2.30;;;;;;;4.68;74.35;100380.38;5074886;28;20456;-67
2021/03/11 01:39:13;;;;;;;1.97;1.03;;;;;;;4.59;75.29;100370.44;5074662;28;20437;-68
2021/03/11 01:41:40;;;;;;;3.20;2.90;;;;;;;4.61;75.10;100362.97;5074773;28;20430;-67
2021/03/11 01:44:07;;;;;;;4.80;1.43;;;;;;;4.63;75.13;100344.72;5073871;28;20942;-68
2021/03/11 01:46:32;;;;;;;2.10;1.50;;;;;;;4.65;74.80;100343.38;5074198;28;20961;-66
2021/03/11 01:48:58;;;;;;;8.53;2.40;;;;;;;4.61;74.90;100345.00;5074431;28;20477;-67
2021/03/11 01:51:25;;;;;;;1.50;1.40;;;;;;;4.68;75.22;100342.03;5074278;28;20866;-67
2021/03/11 01:53:52;;;;;;;2.00;1.70;;;;;;;4.65;75.63;100343.38;5074529;28;20448;-67
2021/03/11 01:56:18;;;;;;;2.90;0.87;;;;;;;4.69;75.46;100339.09;5074136;28;20464;-67
2021/03/11 01:58:46;;;;;;;1.30;1.20;;;;;;;4.65;75.80;100324.59;5074397;28;20449;-67
2021/03/11 02:01:12;;;;;;;1.40;1.07;;;;;;;4.61;75.79;100328.91;5074590;28;20469;-67
2021/03/11 02:03:38;;;;;;;1.13;0.93;;;;;;;4.70;75.64;100329.16;5074325;28;20437;-67
2021/03/11 02:06:04;;;;;;;1.40;1.30;;;;;;;4.70;75.83;100313.88;5074043;28;20528;-67
2021/03/11 02:08:30;;;;;;;8.63;4.40;;;;;;;4.68;75.84;100313.31;5074146;28;20546;-67
2021/03/11 02:10:57;;;;;;;4.00;1.57;;;;;;;4.65;75.39;100299.63;5074135;28;20962;-67
2021/03/11 02:13:32;;;;;;;7.27;1.33;;;;;;;4.58;76.05;100291.88;5074021;28;20434;-67
2021/03/11 02:16:06;;;;;;;10.77;1.37;;;;;;;4.64;76.11;100290.78;5074109;28;20425;-67
2021/03/11 02:18:38;;;;;;;1.90;1.63;;;;;;;4.65;76.09;100279.00;5075685;28;20426;-67
2021/03/11 02:21:07;;;;;;;0.80;0.80;;;;;;;4.65;75.89;100281.69;5078670;28;20469;-67
2021/03/11 02:24:22;;;;;;;0.80;0.50;;;;;;;4.70;76.28;100281.69;5074191;28;20437;-67
2021/03/11 02:27:07;;;;;;;1.90;0.97;;;;;;;4.66;76.46;100279.81;5073908;28;20442;-67
2021/03/11 02:29:36;;;;;;;2.10;1.73;;;;;;;4.69;76.25;100263.16;5073442;28;20480;-67
2021/03/11 02:32:05;;;;;;;0.80;0.80;;;;;;;4.75;76.39;100264.78;5073823;28;20445;-67
2021/03/11 02:34:34;;;;;;;2.70;1.57;;;;;;;4.78;76.68;100258.84;5073789;28;20442;-67
2021/03/11 02:37:04;;;;;;;0.93;0.93;;;;;;;4.79;76.91;100258.59;5073786;28;20491;-67
2021/03/11 02:39:32;;;;;;;12.70;1.30;;;;;;;4.81;77.51;100259.13;5073574;28;20473;-67
2021/03/11 02:41:59;;;;;;;11.33;1.90;;;;;;;4.86;77.67;100249.44;5073689;28;20785;-67
2021/03/11 02:44:26;;;;;;;5.53;1.97;;;;;;;4.88;78.66;100236.59;5074394;28;20437;-67
2021/03/11 02:46:54;;;;;;;1.97;1.60;;;;;;;4.85;79.32;100227.19;5074386;28;20461;-67
2021/03/11 02:49:21;;;;;;;6.10;1.00;;;;;;;4.84;79.72;100214.06;5073418;28;20492;-67
2021/03/11 02:51:48;;;;;;;2.20;2.00;;;;;;;4.90;79.46;100204.91;5073491;28;20445;-67
2021/03/11 02:54:15;;;;;;;1.07;0.73;;;;;;;4.90;79.50;100202.22;5073495;28;20441;-68
2021/03/11 02:56:43;;;;;;;1.63;1.27;;;;;;;4.96;79.55;100193.91;5073371;28;20441;-67
2021/03/11 02:59:10;;;;;;;2.10;0.97;;;;;;;4.97;79.80;100190.13;5073263;28;20437;-67
2021/03/11 03:01:38;;;;;;;4.10;1.83;;;;;;;4.88;80.21;100188.28;5073402;28;20567;-67
2021/03/11 03:04:09;;;;;;;1.10;1.00;;;;;;;4.93;80.20;100188.25;5073064;28;20457;-67
2021/03/11 03:06:36;;;;;;;1.07;1.00;;;;;;;4.98;79.37;100190.94;5073522;28;20433;-67
2021/03/11 03:09:03;;;;;;;6.90;1.27;;;;;;;4.95;79.71;100186.09;5073095;28;20910;-67
2021/03/11 03:11:29;;;;;;;0.83;0.80;;;;;;;4.88;79.77;100180.22;5073319;28;20441;-67
2021/03/11 03:13:56;;;;;;;3.73;1.87;;;;;;;4.91;80.49;100172.41;5073168;28;20448;-68
2021/03/11 03:16:23;;;;;;;4.43;1.53;;;;;;;4.85;80.89;100172.72;5073124;28;20531;-68
2021/03/11 03:18:49;;;;;;;0.70;0.50;;;;;;;4.74;81.67;100171.97;5073093;28;20444;-67
2021/03/11 03:21:16;;;;;;;3.40;3.10;;;;;;;4.71;83.25;100167.94;5072731;28;20497;-68
2021/03/11 03:23:43;;;;;;;1.90;1.30;;;;;;;4.78;83.58;100168.47;5072754;28;20443;-68
2021/03/11 03:26:09;;;;;;;0.97;0.80;;;;;;;4.74;84.69;100163.91;5073125;28;20444;-67
2021/03/11 03:28:35;;;;;;;8.93;1.43;;;;;;;4.68;85.94;100154.25;5072653;28;20481;-67
2021/03/11 03:31:01;;;;;;;1.70;1.60;;;;;;;4.71;86.38;100140.31;5072953;28;20522;-67
2021/03/11 03:33:27;;;;;;;2.23;1.43;;;;;;;4.72;87.35;100133.84;5072993;28;20445;-67
2021/03/11 03:35:53;;;;;;;1.37;1.27;;;;;;;4.68;88.33;100125.53;5072643;28;20589;-67
2021/03/11 03:38:20;;;;;;;2.47;0.97;;;;;;;4.61;90.10;100111.63;5072957;28;20502;-67
2021/03/11 03:40:46;;;;;;;1.90;1.17;;;;;;;4.63;90.51;100104.09;5072556;28;20485;-67
2021/03/11 03:43:18;;;;;;;2.10;1.80;;;;;;;4.60;90.98;100098.47;5072979;28;20426;-66
2021/03/11 03:45:47;;;;;;;4.03;1.60;;;;;;;4.55;91.41;100089.38;5072964;28;20430;-66
2021/03/11 03:48:19;;;;;;;0.97;0.77;;;;;;;4.58;91.50;100079.97;5072825;28;20437;-66
2021/03/11 03:50:47;;;;;;;3.03;2.80;;;;;;;4.57;91.76;100066.84;5072503;28;21005;-66
2021/03/11 03:53:20;;;;;;;4.60;2.13;;;;;;;4.55;92.19;100062.56;5072786;28;20441;-66
2021/03/11 03:55:50;;;;;;;2.20;2.00;;;;;;;4.53;92.47;100045.94;5072529;28;20911;-66
2021/03/11 03:58:17;;;;;;;6.67;2.33;;;;;;;4.54;93.47;100050.22;5072796;28;20433;-67
2021/03/11 04:00:43;;;;;;;2.73;0.60;;;;;;;4.54;93.31;100031.44;5072402;28;20841;-66
2021/03/11 04:03:10;;;;;;;0.60;0.50;;;;;;;4.37;95.16;100014.09;5072598;28;20434;-66
2021/03/11 04:05:37;;;;;;;1.33;1.07;;;;;;;4.27;95.52;100005.00;5072351;28;20506;-66
2021/03/11 04:08:04;;;;;;;0.60;0.60;;;;;;;4.30;95.38;100003.66;5073476;28;21052;-66
2021/03/11 04:10:31;;;;;;;1.53;1.43;;;;;;;4.16;94.99;99992.72;5076440;28;20564;-66
2021/03/11 04:12:58;;;;;;;2.80;2.60;;;;;;;4.15;96.86;99990.31;5076202;28;20856;-66
2021/03/11 04:15:24;;;;;;;1.90;1.00;;;;;;;4.14;97.24;100000.22;5076039;28;20461;-66
2021/03/11 04:17:51;;;;;;;0.97;0.97;;;;;;;4.17;97.74;99994.34;5076374;28;20445;-66
2021/03/11 04:20:17;;;;;;;1.33;0.80;;;;;;;4.23;97.70;99984.38;5076227;28;20453;-66
2021/03/11 04:22:44;;;;;;;4.43;3.10;;;;;;;4.18;98.31;99974.50;5076276;28;20441;-66
2021/03/11 04:25:10;;;;;;;3.53;1.83;;;;;;;4.21;98.14;99962.44;5076235;28;20441;-66
2021/03/11 04:27:37;;;;;;;3.90;1.27;;;;;;;4.22;98.46;99958.66;5076167;28;20437;-66
2021/03/11 04:30:06;;;;;;;0.70;0.70;;;;;;;4.22;98.62;99951.41;5076100;28;20523;-66
2021/03/11 04:32:35;;;;;;;2.93;1.20;;;;;;;4.24;98.86;99940.41;5077603;28;20832;-66
2021/03/11 04:35:02;;;;;;;3.33;2.40;;;;;;;4.26;99.10;99933.72;5076159;28;20436;-66
2021/03/11 04:37:28;;;;;;;2.43;1.07;;;;;;;4.32;99.11;99931.00;5075786;28;20449;-65
2021/03/11 04:39:55;;;;;;;1.57;0.97;;;;;;;4.31;98.80;99924.84;5075718;28;20492;-67
2021/03/11 04:42:21;;;;;;;0.93;0.67;;;;;;;4.32;98.69;99914.94;5075971;28;20443;-64
2021/03/11 04:44:47;;;;;;;4.83;1.07;;;;;;;4.28;99.29;99910.09;5075622;28;20467;-66
2021/03/11 04:47:15;;;;;;;0.70;0.60;;;;;;;4.33;99.12;99911.16;5077505;28;20498;-65
2021/03/11 04:49:42;;;;;;;0.97;0.90;;;;;;;4.37;99.11;99906.84;5077627;28;20492;-65
2021/03/11 04:52:08;;;;;;;1.83;1.27;;;;;;;4.39;99.10;99907.41;5075481;28;20790;-65
2021/03/11 04:54:35;;;;;;;2.23;1.60;;;;;;;4.38;99.59;99887.78;5075801;28;20444;-65
2021/03/11 04:57:01;;;;;;;3.47;2.60;;;;;;;4.40;99.62;99888.34;5075959;28;20446;-65
2021/03/11 04:59:27;;;;;;;1.57;0.83;;;;;;;4.42;99.53;99880.81;5075695;28;20468;-65
2021/03/11 05:01:57;;;;;;;1.83;1.60;;;;;;;4.44;99.84;99867.16;5075568;28;20445;-65
2021/03/11 05:04:24;;;;;;;1.07;0.67;;;;;;;4.49;98.80;99859.84;5075610;28;20448;-65
2021/03/11 05:06:50;;;;;;;9.23;2.23;;;;;;;4.46;98.93;99851.56;5075462;28;20413;-65
2021/03/11 05:09:16;;;;;;;2.43;0.90;;;;;;;4.48;99.17;99844.06;5075350;28;20915;-65
2021/03/11 05:11:43;;;;;;;0.60;0.53;;;;;;;4.39;98.79;99840.38;5075464;28;20500;-65
2021/03/11 05:14:09;;;;;;;3.13;1.07;;;;;;;4.44;98.91;99837.66;5075287;28;20526;-65
2021/03/11 05:16:35;;;;;;;6.00;1.03;;;;;;;4.49;99.43;99816.94;5075300;28;20452;-65
2021/03/11 05:19:01;;;;;;;1.93;1.73;;;;;;;4.53;99.74;99812.63;5074544;28;20938;-66
2021/03/11 05:21:28;;;;;;;0.60;0.57;;;;;;;4.59;99.84;99817.97;5074464;28;20875;-66
2021/03/11 05:23:54;;;;;;;1.40;1.30;;;;;;;4.60;100.00;99812.31;5075139;28;20441;-65
2021/03/11 05:26:20;;;;;;;0.70;0.40;;;;;;;4.63;100.00;99803.72;5075153;28;20448;-66
2021/03/11 05:28:46;;;;;;;1.53;0.93;;;;;;;4.61;100.00;99810.44;5074997;28;20485;-65
2021/03/11 05:31:12;;;;;;;2.73;0.87;;;;;;;4.65;100.00;99808.78;5074970;28;20457;-66
2021/03/11 05:33:38;;;;;;;1.20;1.20;;;;;;;4.57;100.00;99794.13;5074674;28;20449;-65
2021/03/11 05:36:05;;;;;;;0.90;0.90;;;;;;;4.57;100.00;99799.47;5074959;28;20441;-65
2021/03/11 05:38:31;;;;;;;2.10;0.87;;;;;;;4.58;100.00;99792.22;5074975;28;20441;-65
2021/03/11 05:40:58;;;;;;;0.60;0.60;;;;;;;4.62;100.00;99777.97;5074451;28;20473;-65
2021/03/11 05:43:25;;;;;;;1.53;0.80;;;;;;;4.62;100.00;99769.13;5074792;28;20453;-65
2021/03/11 05:45:51;;;;;;;1.33;1.23;;;;;;;4.64;100.00;99773.13;5074749;28;20445;-65
2021/03/11 05:48:19;;;;;;;4.40;1.03;;;;;;;4.62;100.00;99769.94;5074459;28;20969;-65
2021/03/11 05:50:46;;;;;;;0.57;0.50;;;;;;;4.64;100.00;99759.72;5074585;28;20534;-65
2021/03/11 05:53:13;;;;;;;13.43;2.93;;;;;;;4.70;100.00;99761.28;5074298;28;20498;-65
2021/03/11 05:55:40;;;;;;;2.40;1.57;;;;;;;4.72;100.00;99753.72;5074712;28;20444;-67
2021/03/11 05:58:08;;;;;;;2.10;1.47;;;;;;;4.74;100.00;99745.44;5074431;28;20810;-66
2021/03/11 06:00:35;;;;;;;2.97;2.27;;;;;;;4.72;100.00;99745.69;5074477;28;20465;-68
2021/03/11 06:03:05;;;;;;;1.00;0.90;;;;;;;4.69;100.00;99732.88;5074394;28;20449;-67
2021/03/11 06:05:31;;;;;;;1.77;1.07;;;;;;;4.68;100.00;99725.88;5074310;28;20449;-66
2021/03/11 06:07:58;;;;;;;4.60;2.57;;;;;;;4.68;100.00;99725.06;5074355;28;20441;-67
2021/03/11 06:10:24;;;;;;;0.90;0.87;;;;;;;4.66;100.00;99711.16;5073942;28;20983;-65
2021/03/11 06:12:52;;;;;;;1.10;1.10;;;;;;;4.67;100.00;99710.06;5073890;28;20430;-66
2021/03/11 06:15:28;;;;;;;1.90;1.23;;;;;;;4.68;100.00;99706.31;5074126;28;20876;-65
2021/03/11 06:17:55;;;;;;;2.10;0.90;;;;;;;4.69;100.00;99702.53;5074280;28;20436;-66
2021/03/11 06:20:21;;;;;;;3.40;1.20;;;;;;;4.70;100.00;99688.06;5073639;28;20457;-66
2021/03/11 06:22:48;;;;;;;1.80;1.30;;;;;;;4.69;100.00;99694.47;5073988;28;20440;-66
2021/03/11 06:25:16;;;;;;;1.00;0.87;;;;;;;4.69;100.00;99684.59;5073912;28;20448;-66
2021/03/11 06:27:42;;;;;;;0.40;0.30;;;;;;;4.68;100.00;99680.28;5073903;28;20495;-65
2021/03/11 06:30:29;;;;;;;1.67;1.47;;;;;;;4.70;100.00;99666.59;5073510;28;20866;-66
2021/03/11 06:32:55;;;;;;;1.93;1.20;;;;;;;4.65;100.00;99656.72;5073941;28;20445;-66
2021/03/11 06:35:21;;;;;;;3.07;1.53;;;;;;;4.67;100.00;99648.38;5073851;28;20499;-64
2021/03/11 06:37:48;;;;;;;5.10;1.33;;;;;;;4.64;100.00;99647.06;5073746;28;20441;-66
2021/03/11 06:40:16;;;;;;;8.20;2.27;;;;;;;4.67;100.00;99643.03;5073360;28;20602;-66
2021/03/11 06:42:43;;;;;;;1.10;0.67;;;;;;;4.68;100.00;99634.69;5073819;28;20445;-66
2021/03/11 06:45:29;;;;;;;1.17;1.07;;;;;;;4.66;100.00;99644.13;5073360;28;20468;-64
2021/03/11 06:48:19;;;;;;;0.50;0.50;;;;;;;4.64;100.00;99635.53;5073627;28;20896;-66
2021/03/11 06:50:46;;;;;;;2.87;1.60;;;;;;;4.66;100.00;99638.75;5073526;28;20500;-66
2021/03/11 06:53:12;;;;;;;1.77;0.83;;;;;;;4.67;100.00;99634.97;5073628;28;20460;-66
2021/03/11 06:55:37;;;;;;;1.80;1.70;;;;;;;4.66;100.00;99642.22;5073279;28;20477;-66
2021/03/11 06:58:17;;;;;;;2.50;1.60;;;;;;;4.72;100.00;99630.34;5073557;28;20448;-67
2021/03/11 07:00:45;;;;;;;1.13;1.03;;;;;;;4.73;100.00;99623.09;5073187;28;21008;-66
2021/03/11 07:03:11;;;;;;;1.93;1.80;;;;;;;4.72;100.00;99622.31;5073408;28;20790;-65
2021/03/11 07:05:39;;;;;;;1.90;0.60;;;;;;;4.71;100.00;99617.22;5073514;28;20445;-64
2021/03/11 07:08:07;;;;;;;4.67;1.33;;;;;;;4.71;100.00;99603.81;5073450;28;20445;-64
2021/03/11 07:10:34;;;;;;;0.90;0.57;;;;;;;4.66;100.00;99596.63;5073212;28;20481;-65
2021/03/11 07:13:01;;;;;;;2.63;1.03;;;;;;;4.75;100.00;99586.06;5073302;28;20507;-64
2021/03/11 07:15:29;;;;;;;2.77;1.13;;;;;;;4.77;100.00;99583.88;5076004;28;20433;-64
2021/03/11 07:17:56;;;;;;;16.33;2.43;;;;;;;4.78;100.00;99588.97;5076331;28;20441;-64
2021/03/11 07:20:23;;;;;;;1.73;1.30;;;;;;;4.82;100.00;99586.50;5073222;28;20457;-64
2021/03/11 07:23:01;;;;;;;1.07;0.73;;;;;;;4.88;100.00;99571.97;5073297;28;20472;-63
2021/03/11 07:25:29;;;;;;;1.37;1.27;;;;;;;4.89;100.00;99576.22;5073142;28;20449;-64
2021/03/11 07:27:55;;;;;;;0.87;0.87;;;;;;;4.93;100.00;99598.72;5073212;28;20433;-63
2021/03/11 07:30:24;;;;;;;1.63;0.93;;;;;;;4.95;100.00;99588.47;5072987;28;20485;-65
2021/03/11 07:32:56;;;;;;;2.40;1.67;;;;;;;4.97;100.00;99604.31;5073139;28;20452;-65
2021/03/11 07:35:23;;;;;;;0.87;0.53;;;;;;;5.02;100.00;99588.94;5072842;28;20425;-65
2021/03/11 07:37:51;;;;;;;6.93;1.73;;;;;;;5.01;100.00;99598.09;5073082;28;20442;-65
2021/03/11 07:40:18;;;;;;;2.90;1.93;;;;;;;5.01;100.00;99589.22;5072776;28;20480;-65
2021/03/11 07:42:44;;;;;;;2.30;1.43;;;;;;;4.99;100.00;99576.09;5073615;28;20444;-65
2021/03/11 07:45:12;;;;;;;1.70;1.23;;;;;;;4.98;100.00;99553.03;5076849;28;20487;-65
2021/03/11 07:47:39;;;;;;;6.10;1.70;;;;;;;5.05;100.00;99558.84;5077232;28;20433;-64
2021/03/11 07:50:08;;;;;;;6.40;3.77;;;;;;;5.13;100.00;99559.28;5076911;28;20488;-65
2021/03/11 07:52:35;;;;;;;1.73;0.63;;;;;;;5.18;100.00;99556.50;5077091;28;20475;-66
2021/03/11 07:55:04;;;;;;;0.40;0.40;;;;;;;5.17;100.00;99544.97;5077133;28;20433;-65
2021/03/11 07:57:32;;;;;;;4.57;1.23;;;;;;;5.18;100.00;99545.78;5077011;28;20499;-64
2021/03/11 07:59:58;;;;;;;0.60;0.60;;;;;;;5.20;100.00;99544.41;5076824;28;20469;-66
2021/03/11 08:02:26;;;;;;;2.87;0.87;;;;;;;5.26;100.00;99545.91;5076796;28;20440;-65
2021/03/11 08:04:52;;;;;;;3.53;0.83;;;;;;;5.31;100.00;99540.50;5076520;28;20441;-65
2021/03/11 08:07:20;;;;;;;1.10;1.10;;;;;;;5.29;100.00;99534.59;5076891;28;20815;-64
2021/03/11 08:09:48;;;;;;;0.90;0.70;;;;;;;5.32;100.00;99525.19;5076641;28;20485;-66
2021/03/11 08:12:28;;;;;;;2.43;1.87;;;;;;;5.35;100.00;99535.31;5076666;28;20519;-64
2021/03/11 08:14:54;;;;;;;0.40;0.30;;;;;;;5.29;100.00;99515.81;5076351;28;20465;-65
2021/03/11 08:17:38;;;;;;;0.40;0.40;;;;;;;5.34;100.00;99517.63;5076550;28;20499;-67
2021/03/11 08:20:06;;;;;;;3.03;1.30;;;;;;;5.36;100.00;99528.06;5076475;28;20452;-67
2021/03/11 08:23:03;;;;;;;1.07;0.47;;;;;;;5.41;100.00;99523.41;5076327;28;20515;-66
2021/03/11 08:25:46;;;;;;;4.40;1.37;;;;;;;5.45;100.00;99518.28;5076497;28;20441;-66
2021/03/11 08:28:36;;;;;;;3.27;1.90;;;;;;;5.46;100.00;99517.16;5076440;28;20436;-67
2021/03/11 08:31:04;;;;;;;0.97;0.70;;;;;;;5.49;100.00;99503.97;5076156;28;20516;-67
2021/03/11 08:33:54;;;;;;;1.67;1.07;;;;;;;5.51;100.00;99501.75;5075970;28;20823;-67
2021/03/11 08:36:33;;;;;;;1.23;0.50;;;;;;;5.59;100.00;99503.00;5076263;28;20425;-68
2021/03/11 08:38:59;;;;;;;0.50;0.50;;;;;;;5.60;100.00;99491.16;5076059;28;20471;-67
2021/03/11 08:41:32;;;;;;;0.50;0.43;;;;;;;5.61;100.00;99489.25;5074995;28;20441;-66
2021/03/11 08:44:01;;;;;;;1.07;0.50;;;;;;;5.67;100.00;99496.94;5074966;28;20433;-65
2021/03/11 08:46:49;;;;;;;0.50;0.30;;;;;;;5.67;100.00;99502.31;5074887;28;20441;-67
2021/03/11 08:49:37;;;;;;;0.50;0.40;;;;;;;5.70;100.00;99487.47;5074672;28;20501;-68
2021/03/11 08:52:05;;;;;;;0.57;0.40;;;;;;;5.76;100.00;99472.88;5074837;28;20422;-67
2021/03/11 08:54:31;;;;;;;1.07;0.97;;;;;;;5.77;100.00;99469.88;5074105;28;20861;-67
2021/03/11 08:56:58;;;;;;;0.60;0.60;;;;;;;5.82;100.00;99469.00;5074313;28;20893;-68
2021/03/11 08:59:43;;;;;;;1.60;1.50;;;;;;;5.83;100.00;99475.97;5074678;28;20454;-67
2021/03/11 09:02:33;;;;;;;1.37;1.23;;;;;;;5.89;100.00;99463.22;5074758;28;20437;-70
2021/03/11 09:04:59;;;;;;;1.67;1.57;;;;;;;5.87;100.00;99473.47;5074600;28;20525;-67
2021/03/11 09:07:32;;;;;;;0.50;0.50;;;;;;;5.86;100.00;99469.22;5074751;28;20547;-68
2021/03/11 09:09:58;;;;;;;1.07;0.70;;;;;;;5.83;100.00;99476.75;5074419;28;20571;-69
2021/03/11 09:12:32;;;;;;;0.40;0.30;;;;;;;5.83;100.00;99471.38;5074448;28;20445;-68
2021/03/11 09:15:00;;;;;;;1.30;0.93;;;;;;;5.85;100.00;99473.78;5074433;28;20421;-67
2021/03/11 09:17:27;;;;;;;0.40;0.33;;;;;;;5.85;100.00;99475.69;5074453;28;20449;-68
2021/03/11 09:19:55;;;;;;;1.60;0.60;;;;;;;5.84;100.00;99461.41;5074148;28;21001;-67
2021/03/11 09:22:24;;;;;;;0.80;0.47;;;;;;;5.88;100.00;99470.50;5074341;28;20457;-66
2021/03/11 09:25:05;;;;;;;1.73;1.20;;;;;;;5.91;100.00;99453.78;5074386;28;20809;-66
2021/03/11 09:27:33;;;;;;;2.03;0.90;;;;;;;5.89;100.00;99457.84;5054637;28;20433;-65
2021/03/11 09:30:00;;;;;;;1.93;0.80;;;;;;;5.87;100.00;99452.78;5054289;28;20490;-66
2021/03/11 09:32:27;;;;;;;0.60;0.50;;;;;;;5.86;100.00;99428.91;5062265;28;20461;-66
2021/03/11 09:34:55;;;;;;;1.37;1.13;;;;;;;5.93;100.00;99421.25;5073946;28;20498;-66
2021/03/11 09:37:47;;;;;;;2.10;0.60;;;;;;;5.99;100.00;99414.69;5073251;28;20460;-67
2021/03/11 09:40:19;;;;;;;2.20;1.30;;;;;;;5.99;100.00;99420.06;5052699;28;614467;-66
2021/03/11 09:43:03;;;;;;;2.03;1.43;;;;;;;6.03;100.00;99421.06;5074581;28;20456;-65
2021/03/11 09:45:33;;;;;;;9.97;1.97;;;;;;;6.05;100.00;99418.88;5077840;28;20464;-65
2021/03/11 09:48:03;;;;;;;6.03;1.80;;;;;;;5.95;100.00;99408.31;5078097;28;20922;-66
2021/03/11 09:50:29;;;;;;;1.13;1.03;;;;;;;5.91;100.00;99397.34;5074772;28;20481;-68
2021/03/11 09:52:56;;;;;;;7.27;1.87;;;;;;;5.96;100.00;99409.91;5074839;28;20433;-66
2021/03/11 09:55:22;;;;;;;2.70;0.67;;;;;;;6.02;100.00;99403.31;5074517;28;20939;-64
2021/03/11 09:57:48;;;;;;;10.40;1.40;;;;;;;6.02;100.00;99403.31;5074673;28;20530;-63
2021/03/11 10:00:17;;;;;;;0.50;0.40;;;;;;;6.01;100.00;99391.00;5074624;28;21020;-64
2021/03/11 10:02:46;;;;;;;0.50;0.50;;;;;;;6.07;100.00;99389.81;5074540;28;20503;-65
2021/03/11 10:05:13;;;;;;;0.53;0.50;;;;;;;6.13;100.00;99369.78;5073722;28;20931;-64
2021/03/11 10:07:39;;;;;;;0.57;0.57;;;;;;;6.14;100.00;99384.81;5074448;28;20433;-62
2021/03/11 10:10:11;;;;;;;4.03;1.30;;;;;;;6.17;100.00;99388.78;5074305;28;20554;-64
2021/03/11 10:12:37;;;;;;;16.63;2.80;;;;;;;6.21;100.00;99379.81;5074491;28;20436;-65
2021/03/11 10:15:07;;;;;;;1.57;1.47;;;;;;;6.26;100.00;99385.09;5074425;28;20498;-64
2021/03/11 10:17:34;;;;;;;3.23;1.83;;;;;;;6.28;100.00;99393.63;5074391;28;20430;-65
2021/03/11 10:20:19;;;;;;;2.90;1.00;;;;;;;6.35;100.00;99387.06;5074201;28;20801;-64
2021/03/11 10:22:45;;;;;;;1.10;1.00;;;;;;;6.44;100.00;99388.75;5074221;28;20430;-64
2021/03/11 10:25:14;;;;;;;2.30;1.00;;;;;;;6.40;100.00;99386.97;5074098;28;20476;-64
2021/03/11 10:27:44;;;;;;;2.77;1.60;;;;;;;6.46;100.00;99380.34;5073988;28;20449;-62
2021/03/11 10:30:12;;;;;;;1.53;0.90;;;;;;;6.49;100.00;99380.56;5073866;28;20844;-65
2021/03/11 10:32:41;;;;;;;1.53;0.93;;;;;;;6.55;100.00;99373.16;5075016;28;20947;-65
2021/03/11 10:35:09;;;;;;;2.57;2.20;;;;;;;6.64;100.00;99379.44;5073964;28;20445;-64
2021/03/11 10:37:36;;;;;;;1.73;1.17;;;;;;;6.63;100.00;99358.97;5073701;28;20444;-65
2021/03/11 10:40:05;;;;;;;1.10;1.00;;;;;;;6.70;100.00;99345.91;5073537;28;20473;-65
2021/03/11 10:42:43;;;;;;;1.80;0.60;;;;;;;6.82;100.00;99337.28;5073859;28;20442;-64
2021/03/11 10:45:11;;;;;;;1.47;1.30;;;;;;;7.03;100.00;99326.78;5073501;28;20470;-65
2021/03/11 10:47:37;;;;;;;3.40;1.63;;;;;;;7.36;100.00;99334.56;5073774;28;20495;-62
2021/03/11 10:50:16;;;;;;;2.60;1.23;;;;;;;7.56;100.00;99321.31;5073255;28;20489;-63
2021/03/11 10:52:48;;;;;;;0.80;0.57;;;;;;;7.72;100.00;99312.84;5073710;28;20425;-64
2021/03/11 10:55:28;;;;;;;0.70;0.63;;;;;;;7.97;100.00;99319.38;5073596;28;20441;-65
2021/03/11 10:57:54;;;;;;;1.97;1.00;;;;;;;8.31;100.00;99314.00;5073583;28;20430;-65
2021/03/11 11:00:23;;;;;;;1.00;0.90;;;;;;;8.77;100.00;99315.31;5073493;28;20457;-64
2021/03/11 11:02:53;;;;;;;1.27;1.17;;;;;;;9.18;100.00;99310.44;5073249;28;20498;-67
2021/03/11 11:05:20;;;;;;;1.60;1.50;;;;;;;9.09;100.00;99296.97;5073734;28;20473;-66
2021/03/11 11:07:46;;;;;;;0.60;0.57;;;;;;;9.01;100.00;99293.16;5073420;28;20449;-65
2021/03/11 11:10:13;;;;;;;1.80;1.13;;;;;;;9.04;100.00;99272.84;5073298;28;20513;-65
2021/03/11 11:12:39;;;;;;;1.23;0.93;;;;;;;9.07;100.00;99280.28;5073335;28;20450;-65
2021/03/11 11:15:06;;;;;;;1.10;0.80;;;;;;;9.08;100.00;99289.97;5073292;28;20464;-66
2021/03/11 11:17:32;;;;;;;3.13;2.83;;;;;;;9.16;100.00;99274.84;5073299;28;20444;-65
2021/03/11 11:19:58;;;;;;;1.17;1.17;;;;;;;9.21;100.00;99258.44;5073297;28;20457;-66
2021/03/11 11:22:25;;;;;;;0.60;0.30;;;;;;;9.37;100.00;99264.09;5073342;28;20438;-65
2021/03/11 11:24:51;;;;;;;1.17;0.97;;;;;;;9.46;99.77;99245.94;5073253;28;20495;-65
2021/03/11 11:27:17;;;;;;;2.03;1.93;;;;;;;9.59;98.58;99234.09;5073253;28;20437;-65
2021/03/11 11:29:43;;;;;;;1.87;1.70;;;;;;;9.52;97.98;99204.09;5073026;28;20497;-66
2021/03/11 11:32:09;;;;;;;1.80;1.43;;;;;;;9.42;97.59;99204.47;5072883;28;20958;-66
2021/03/11 11:34:35;;;;;;;2.40;1.40;;;;;;;9.43;98.03;99197.94;5072903;28;20471;-66
2021/03/11 11:37:02;;;;;;;2.07;1.90;;;;;;;9.45;98.54;99195.72;5073000;28;21004;-66
2021/03/11 11:39:29;;;;;;;1.80;1.70;;;;;;;9.45;98.13;99199.19;5072902;28;20849;-66
2021/03/11 11:41:54;;;;;;;0.97;0.87;;;;;;;9.71;99.17;99190.91;5073378;28;20425;-65